Time;durP1;ratioP1;P1;durP2;ratioP2;P2;SDS_P1;SDS_P2;PMS_P1;PMS_P2;Temp;Humidity;BMP_temperature;BMP_pressure;BME280_temperature;BME280_humidity;BME280_pressure;Samples;Min_cycle;Max_cycle;Signal;HPM_P1;HPM_P2
2020/12/01 00:02:09;;;;;;;1.83;1.30;;;20.20;50.70;;;;;;5079481;28;20024;-49
2020/12/01 00:04:35;;;;;;;2.53;1.48;;;20.20;50.70;;;;;;5071065;28;20475;-49
2020/12/01 00:07:00;;;;;;;2.17;1.30;;;20.20;50.70;;;;;;5090310;28;20031;-54
2020/12/01 00:09:26;;;;;;;1.55;1.08;;;20.20;50.80;;;;;;5085996;28;20467;-51
2020/12/01 00:11:51;;;;;;;2.17;1.27;;;20.20;50.80;;;;;;5079548;28;20028;-50
2020/12/01 00:14:17;;;;;;;1.85;1.20;;;20.20;50.80;;;;;;5087373;28;20024;-51
2020/12/01 00:16:46;;;;;;;1.95;1.33;;;20.10;50.70;;;;;;5082335;28;20543;-58
2020/12/01 00:19:12;;;;;;;2.72;1.33;;;20.10;50.70;;;;;;5071328;28;20343;-45
2020/12/01 00:21:38;;;;;;;2.65;1.00;;;20.10;50.80;;;;;;5073180;28;20032;-52
2020/12/01 00:24:04;;;;;;;1.60;1.10;;;20.10;50.80;;;;;;5071538;28;20119;-54
2020/12/01 00:26:30;;;;;;;1.90;1.20;;;20.10;50.80;;;;;;5069487;28;20016;-50
2020/12/01 00:28:55;;;;;;;2.13;1.25;;;20.10;50.80;;;;;;5080571;28;20032;-50
2020/12/01 00:31:21;;;;;;;2.03;1.08;;;20.10;50.80;;;;;;5073844;28;20028;-53
2020/12/01 00:33:47;;;;;;;2.55;1.17;;;20.00;50.80;;;;;;5064964;28;20039;-55
2020/12/01 00:36:13;;;;;;;1.88;1.10;;;20.00;50.80;;;;;;5081339;28;20454;-46
2020/12/01 00:38:40;;;;;;;1.73;1.10;;;20.00;50.80;;;;;;5080284;28;20028;-49
2020/12/01 00:41:06;;;;;;;1.85;1.40;;;20.00;50.90;;;;;;5075969;28;20531;-49
2020/12/01 00:43:31;;;;;;;3.03;1.33;;;20.00;50.90;;;;;;5092079;28;20050;-50
2020/12/01 00:45:57;;;;;;;1.70;1.20;;;20.00;50.90;;;;;;5087278;28;20039;-53
2020/12/01 00:48:23;;;;;;;1.98;1.30;;;20.00;50.90;;;;;;5078453;28;20355;-56
2020/12/01 00:50:48;;;;;;;1.63;1.10;;;20.00;51.00;;;;;;5082811;28;20460;-46
2020/12/01 00:53:14;;;;;;;2.90;1.20;;;20.00;50.90;;;;;;5088746;28;20028;-47
2020/12/01 00:55:40;;;;;;;1.92;1.10;;;20.00;50.90;;;;;;5093545;28;20027;-52
2020/12/01 00:58:05;;;;;;;1.30;1.00;;;19.90;50.90;;;;;;5075825;28;20044;-47
2020/12/01 01:00:32;;;;;;;2.65;1.20;;;20.00;51.00;;;;;;5084673;28;20026;-53
2020/12/01 01:02:58;;;;;;;2.90;1.40;;;20.00;51.00;;;;;;5084000;28;20139;-55
2020/12/01 01:05:23;;;;;;;2.25;1.30;;;19.90;50.90;;;;;;5073867;28;20103;-48
2020/12/01 01:07:49;;;;;;;2.80;1.13;;;19.90;51.00;;;;;;5067382;28;20024;-49
2020/12/01 01:10:18;;;;;;;1.95;1.10;;;19.90;51.00;;;;;;5089109;28;20027;-57
2020/12/01 01:12:43;;;;;;;1.58;1.00;;;19.90;51.00;;;;;;5067306;28;20020;-53
2020/12/01 01:15:09;;;;;;;2.15;1.20;;;19.90;51.00;;;;;;5082836;28;20040;-46
2020/12/01 01:17:35;;;;;;;1.90;1.20;;;19.90;51.00;;;;;;5083158;28;20053;-52
2020/12/01 01:20:01;;;;;;;2.15;1.33;;;19.90;51.00;;;;;;5091457;28;20024;-50
2020/12/01 01:22:27;;;;;;;2.00;1.30;;;19.90;51.10;;;;;;5080200;28;20175;-49
2020/12/01 01:24:52;;;;;;;1.70;1.13;;;19.80;51.00;;;;;;5073962;28;20115;-52
2020/12/01 01:27:18;;;;;;;1.27;1.10;;;19.90;51.10;;;;;;5084934;28;20028;-50
2020/12/01 01:29:43;;;;;;;2.33;1.20;;;19.80;51.00;;;;;;5093519;28;20100;-50
2020/12/01 01:32:09;;;;;;;1.75;1.17;;;19.80;51.00;;;;;;5075204;28;20052;-47
2020/12/01 01:34:34;;;;;;;1.63;1.10;;;19.80;51.00;;;;;;5091963;28;20454;-52
2020/12/01 01:37:00;;;;;;;1.58;1.10;;;19.80;51.00;;;;;;5066064;28;20131;-53
2020/12/01 01:39:26;;;;;;;1.70;1.20;;;19.80;51.00;;;;;;5086091;28;20173;-49
2020/12/01 01:41:51;;;;;;;1.40;1.00;;;19.80;51.10;;;;;;5085058;28;20081;-50
2020/12/01 01:44:21;;;;;;;2.05;1.30;;;19.80;51.10;;;;;;5080569;28;20061;-47
2020/12/01 01:46:52;;;;;;;2.08;1.20;;;19.80;51.10;;;;;;5080731;28;20048;-49
2020/12/01 01:49:21;;;;;;;1.73;1.20;;;19.80;51.10;;;;;;5087833;28;20343;-52
2020/12/01 01:51:52;;;;;;;1.83;1.20;;;19.80;51.10;;;;;;5095126;28;20069;-51
2020/12/01 01:54:19;;;;;;;1.45;1.08;;;19.80;51.10;;;;;;5093160;28;20048;-51
2020/12/01 01:56:48;;;;;;;1.92;1.20;;;19.80;51.10;;;;;;5083884;28;20164;-53
2020/12/01 01:59:14;;;;;;;2.17;1.30;;;19.70;51.10;;;;;;5064583;28;20059;-52
2020/12/01 02:01:40;;;;;;;2.38;1.20;;;19.70;51.10;;;;;;5081957;28;20481;-49
2020/12/01 02:04:09;;;;;;;2.10;1.17;;;19.70;51.10;;;;;;5078924;28;20113;-49
2020/12/01 02:06:53;;;;;;;1.83;1.33;;;19.70;51.10;;;;;;5075328;28;20019;-49
2020/12/01 02:09:42;;;;;;;1.77;1.20;;;19.70;51.20;;;;;;5088695;28;20506;-48
2020/12/01 02:12:10;;;;;;;1.70;1.17;;;19.70;51.20;;;;;;5078422;28;20119;-52
2020/12/01 02:14:37;;;;;;;1.67;1.10;;;19.70;51.20;;;;;;5072937;28;20297;-52
2020/12/01 02:17:24;;;;;;;1.88;1.30;;;19.70;51.20;;;;;;5065543;28;20071;-52
2020/12/01 02:19:51;;;;;;;2.00;1.20;;;19.70;51.20;;;;;;5063418;28;20428;-51
2020/12/01 02:22:20;;;;;;;2.13;1.20;;;19.70;51.20;;;;;;5081750;28;20028;-55
2020/12/01 02:24:46;;;;;;;2.03;1.30;;;19.70;51.80;;;;;;5095331;28;20476;-50
2020/12/01 02:27:15;;;;;;;1.58;1.10;;;19.70;51.20;;;;;;5099603;28;20028;-53
2020/12/01 02:29:48;;;;;;;1.75;1.20;;;19.60;51.20;;;;;;5070300;28;20093;-58
2020/12/01 02:32:14;;;;;;;2.00;1.20;;;19.60;51.20;;;;;;5083005;28;20120;-49
2020/12/01 02:34:43;;;;;;;1.77;1.02;;;19.60;51.20;;;;;;5088583;28;20406;-53
2020/12/01 02:37:12;;;;;;;2.20;1.27;;;19.60;51.30;;;;;;5092237;28;20043;-53
2020/12/01 02:39:38;;;;;;;2.10;1.40;;;19.60;51.30;;;;;;5084491;28;20036;-52
2020/12/01 02:42:10;;;;;;;1.85;1.20;;;19.60;51.30;;;;;;5077234;28;20040;-51
2020/12/01 02:44:36;;;;;;;2.05;1.17;;;19.60;51.30;;;;;;5085141;28;20358;-50
2020/12/01 02:47:04;;;;;;;1.88;1.10;;;19.60;51.30;;;;;;5082367;28;20029;-52
2020/12/01 02:49:31;;;;;;;2.33;1.20;;;19.60;51.30;;;;;;5085202;28;20035;-54
2020/12/01 02:51:57;;;;;;;1.90;1.20;;;19.60;51.80;;;;;;5074230;28;20044;-51
2020/12/01 02:54:23;;;;;;;1.45;1.00;;;19.60;51.30;;;;;;5083836;28;20055;-49
2020/12/01 02:56:48;;;;;;;1.83;1.20;;;19.60;51.30;;;;;;5076329;28;20142;-51
2020/12/01 02:59:14;;;;;;;2.28;1.27;;;19.60;51.30;;;;;;5088285;28;20032;-52
2020/12/01 03:01:40;;;;;;;1.90;1.20;;;19.60;51.30;;;;;;5085306;28;20475;-52
2020/12/01 03:04:06;;;;;;;2.17;1.20;;;19.60;51.30;;;;;;5090252;28;20035;-51
2020/12/01 03:06:31;;;;;;;2.35;1.30;;;19.60;51.30;;;;;;5069595;28;20776;-51
2020/12/01 03:08:57;;;;;;;1.98;1.20;;;19.60;51.30;;;;;;5083513;28;20248;-52
2020/12/01 03:11:23;;;;;;;2.15;1.30;;;19.50;51.30;;;;;;5069034;28;20725;-51
2020/12/01 03:13:48;;;;;;;1.52;1.10;;;19.50;51.30;;;;;;5078424;28;20020;-50
2020/12/01 03:16:14;;;;;;;2.00;1.30;;;19.50;51.30;;;;;;5087381;28;20042;-49
2020/12/01 03:18:43;;;;;;;1.70;1.10;;;19.50;51.30;;;;;;5077971;28;20033;-54
2020/12/01 03:21:10;;;;;;;1.77;1.23;;;19.50;51.30;;;;;;5071640;28;20308;-54
2020/12/01 03:23:36;;;;;;;1.77;1.17;;;19.50;51.30;;;;;;5069679;28;20046;-52
2020/12/01 03:26:02;;;;;;;1.83;1.20;;;19.50;51.30;;;;;;5085227;28;20533;-50
2020/12/01 03:28:29;;;;;;;2.03;1.23;;;19.50;51.30;;;;;;5087703;28;20463;-54
2020/12/01 03:30:55;;;;;;;1.63;1.13;;;19.50;51.30;;;;;;5087234;28;20039;-51
2020/12/01 03:33:21;;;;;;;1.85;1.10;;;19.50;51.30;;;;;;5079181;28;20555;-54
2020/12/01 03:35:47;;;;;;;2.10;1.42;;;19.50;51.30;;;;;;5079757;28;20052;-54
2020/12/01 03:38:13;;;;;;;3.00;1.25;;;19.50;51.20;;;;;;5079019;28;20051;-52
2020/12/01 03:40:38;;;;;;;2.50;1.33;;;19.50;51.30;;;;;;5085364;28;20119;-50
2020/12/01 03:43:04;;;;;;;1.77;1.20;;;19.50;51.30;;;;;;5088597;28;20551;-54
2020/12/01 03:45:31;;;;;;;1.98;1.25;;;19.50;51.20;;;;;;5087261;28;20405;-54
2020/12/01 03:47:56;;;;;;;2.10;1.30;;;19.50;51.20;;;;;;5083428;28;20062;-49
2020/12/01 03:50:24;;;;;;;2.22;1.35;;;19.50;51.80;;;;;;5080439;28;20025;-50
2020/12/01 03:52:50;;;;;;;1.60;1.17;;;19.50;51.30;;;;;;5068446;28;20422;-48
2020/12/01 03:55:16;;;;;;;2.30;1.40;;;19.50;51.30;;;;;;5089024;28;20031;-49
2020/12/01 03:57:42;;;;;;;2.10;1.30;;;19.50;51.30;;;;;;5082160;28;20027;-49
2020/12/01 04:00:13;;;;;;;1.77;1.20;;;19.50;51.30;;;;;;5087203;28;20051;-54
2020/12/01 04:02:39;;;;;;;1.80;1.17;;;19.50;51.30;;;;;;5079682;28;20028;-53
2020/12/01 04:05:06;;;;;;;2.08;1.30;;;19.50;51.80;;;;;;5079990;28;20039;-48
2020/12/01 04:07:32;;;;;;;1.75;1.17;;;19.50;51.40;;;;;;5079666;28;20061;-52
2020/12/01 04:09:57;;;;;;;1.90;1.20;;;19.40;51.40;;;;;;5078525;28;20033;-52
2020/12/01 04:12:27;;;;;;;2.38;1.38;;;19.40;51.40;;;;;;5080298;28;20379;-50
2020/12/01 04:14:54;;;;;;;1.80;1.20;;;19.40;51.40;;;;;;5075667;28;20420;-53
2020/12/01 04:17:19;;;;;;;2.00;1.40;;;19.40;51.40;;;;;;5072031;28;20039;-50
2020/12/01 04:19:45;;;;;;;1.77;1.20;;;19.40;51.40;;;;;;5093811;28;20035;-55
2020/12/01 04:22:11;;;;;;;2.25;1.50;;;19.40;51.50;;;;;;5083600;28;20109;-52
2020/12/01 04:24:39;;;;;;;2.05;1.30;;;19.40;51.50;;;;;;5086357;28;20087;-55
2020/12/01 04:27:05;;;;;;;1.42;1.20;;;19.40;51.50;;;;;;5076846;28;20043;-52
2020/12/01 04:29:31;;;;;;;2.28;1.30;;;19.40;51.50;;;;;;5086260;28;20032;-52
2020/12/01 04:31:57;;;;;;;2.40;1.30;;;19.40;51.50;;;;;;5084122;28;20032;-51
2020/12/01 04:34:22;;;;;;;2.72;1.60;;;19.40;51.60;;;;;;5066841;28;20152;-54
2020/12/01 04:36:48;;;;;;;1.98;1.40;;;19.40;51.60;;;;;;5085787;28;20127;-50
2020/12/01 04:39:14;;;;;;;2.60;1.40;;;19.40;51.60;;;;;;5077020;28;20111;-55
2020/12/01 04:41:40;;;;;;;2.10;1.25;;;19.40;51.60;;;;;;5078375;28;20063;-52
2020/12/01 04:44:16;;;;;;;2.40;1.40;;;19.40;51.60;;;;;;5101529;28;20067;-55
2020/12/01 04:46:43;;;;;;;2.50;1.23;;;19.40;51.70;;;;;;5090527;28;20036;-51
2020/12/01 04:49:28;;;;;;;2.58;1.40;;;19.40;51.70;;;;;;5077443;28;20029;-53
2020/12/01 04:52:14;;;;;;;1.88;1.25;;;19.40;51.70;;;;;;5074570;28;20340;-52
2020/12/01 04:55:23;;;;;;;1.85;1.25;;;19.40;51.70;;;;;;5071070;28;20031;-56
2020/12/01 04:58:19;;;;;;;2.35;1.20;;;19.40;51.70;;;;;;5083097;28;20432;-49
2020/12/01 05:00:56;;;;;;;2.22;1.30;;;19.40;51.70;;;;;;5070092;28;20034;-49
2020/12/01 05:03:31;;;;;;;2.15;1.42;;;19.40;51.80;;;;;;5079244;28;20028;-50
2020/12/01 05:09:03;;;;;;;2.70;1.45;;;19.40;51.80;;;;;;5091933;28;20284;-53
2020/12/01 05:11:56;;;;;;;3.10;1.48;;;19.40;51.80;;;;;;5092655;28;20078;-51
2020/12/01 05:14:32;;;;;;;2.30;1.60;;;19.40;51.80;;;;;;5074905;28;20478;-56
2020/12/01 05:17:17;;;;;;;2.65;1.90;;;19.50;51.80;;;;;;5076300;28;20024;-55
2020/12/01 05:19:47;;;;;;;3.40;1.48;;;19.50;51.80;;;;;;5071694;28;20091;-58
2020/12/01 05:22:16;;;;;;;2.97;1.50;;;19.40;51.80;;;;;;5083726;28;20059;-54
2020/12/01 05:24:48;;;;;;;1.98;1.35;;;19.40;51.80;;;;;;5076959;28;20115;-52
2020/12/01 05:27:25;;;;;;;3.10;1.70;;;19.40;51.80;;;;;;5071922;28;20032;-52
2020/12/01 05:30:05;;;;;;;3.00;1.67;;;19.50;51.90;;;;;;5072944;28;20044;-53
2020/12/01 05:32:37;;;;;;;3.28;1.60;;;19.40;51.90;;;;;;5083248;28;20038;-54
2020/12/01 05:35:21;;;;;;;2.47;1.55;;;19.40;52.00;;;;;;5084136;28;20593;-55
2020/12/01 05:37:58;;;;;;;2.30;1.40;;;19.40;52.00;;;;;;5082989;28;20036;-52
2020/12/01 05:40:27;;;;;;;2.50;1.58;;;19.40;52.00;;;;;;5076871;28;20028;-55
2020/12/01 05:42:53;;;;;;;2.80;1.50;;;19.40;52.10;;;;;;5083755;28;20030;-54
2020/12/01 05:45:34;;;;;;;2.50;1.65;;;19.40;52.10;;;;;;5083996;28;20037;-52
2020/12/01 05:48:28;;;;;;;3.58;1.60;;;19.40;52.10;;;;;;5074515;28;20472;-54
2020/12/01 05:51:15;;;;;;;2.17;1.40;;;19.40;52.20;;;;;;5074141;28;20036;-54
2020/12/01 05:53:41;;;;;;;3.30;1.45;;;19.40;52.70;;;;;;5085698;28;20028;-58
2020/12/01 05:56:14;;;;;;;2.20;1.35;;;19.40;52.20;;;;;;5080216;28;20055;-58
2020/12/01 05:58:45;;;;;;;2.83;1.40;;;19.40;52.20;;;;;;5079919;28;20039;-57
2020/12/01 06:01:11;;;;;;;3.65;1.52;;;19.40;52.30;;;;;;5079279;28;20107;-52
2020/12/01 06:03:54;;;;;;;2.80;1.65;;;19.40;52.30;;;;;;5077853;28;20566;-53
2020/12/01 06:06:24;;;;;;;3.90;1.60;;;19.40;52.30;;;;;;5071999;28;20155;-56
2020/12/01 06:09:25;;;;;;;2.28;1.45;;;19.40;52.30;;;;;;5082580;28;20151;-51
2020/12/01 06:11:57;;;;;;;3.83;1.50;;;19.40;52.30;;;;;;5072005;28;20130;-55
2020/12/01 06:14:50;;;;;;;3.00;1.55;;;19.40;52.40;;;;;;5073109;28;20028;-58
2020/12/01 06:17:22;;;;;;;3.47;1.85;;;19.40;53.10;;;;;;5074735;28;20128;-57
2020/12/01 06:20:01;;;;;;;2.97;2.05;;;19.60;53.00;;;;;;5065214;28;20450;-60
2020/12/01 06:22:50;;;;;;;4.03;1.95;;;19.70;53.00;;;;;;5076540;28;20020;-55
2020/12/01 06:25:28;;;;;;;3.58;2.03;;;20.00;53.10;;;;;;5088326;28;20775;-55
2020/12/01 06:27:53;;;;;;;4.07;2.08;;;20.30;52.80;;;;;;5090947;28;20769;-56
2020/12/01 06:30:44;;;;;;;3.90;2.00;;;20.50;52.40;;;;;;5092492;28;20076;-57
2020/12/01 06:33:34;;;;;;;2.97;1.63;;;20.70;52.30;;;;;;5088939;28;20020;-58
2020/12/01 06:35:59;;;;;;;3.05;1.67;;;20.90;51.90;;;;;;5105946;28;20037;-60
2020/12/01 06:38:46;;;;;;;3.28;1.60;;;21.10;51.70;;;;;;5095816;28;20032;-57
2020/12/01 06:41:15;;;;;;;2.67;1.70;;;21.30;51.60;;;;;;5092869;28;20518;-60
2020/12/01 06:43:53;;;;;;;3.63;1.85;;;21.50;51.60;;;;;;5105372;28;20346;-58
2020/12/01 06:46:39;;;;;;;3.70;1.77;;;21.70;51.40;;;;;;5103306;28;20827;-55
2020/12/01 06:49:11;;;;;;;3.25;1.80;;;21.80;51.20;;;;;;5095434;28;20024;-56
2020/12/01 06:51:38;;;;;;;2.42;1.33;;;22.00;51.10;;;;;;5094313;28;20041;-56
2020/12/01 06:54:10;;;;;;;2.60;1.40;;;22.10;51.00;;;;;;5095273;27;20111;-60
2020/12/01 06:56:36;;;;;;;2.53;1.40;;;22.30;50.90;;;;;;5098345;28;20027;-56
2020/12/01 06:59:09;;;;;;;2.00;1.40;;;22.40;50.60;;;;;;5098683;28;20138;-58
2020/12/01 07:01:36;;;;;;;2.63;1.45;;;22.60;50.50;;;;;;5090623;28;20031;-58
2020/12/01 07:04:13;;;;;;;2.22;1.40;;;22.80;50.50;;;;;;5083428;28;20028;-59
2020/12/01 07:06:47;;;;;;;2.10;1.20;;;23.00;50.00;;;;;;5077518;28;20052;-59
2020/12/01 07:09:18;;;;;;;2.47;1.23;;;23.00;50.20;;;;;;5083796;28;20359;-56
2020/12/01 07:12:15;;;;;;;2.92;1.38;;;22.90;50.20;;;;;;5085631;28;20028;-54
2020/12/01 07:14:43;;;;;;;2.35;1.13;;;22.70;48.90;;;;;;5106234;28;20038;-59
2020/12/01 07:17:20;;;;;;;2.05;1.20;;;22.60;49.10;;;;;;5088145;28;20043;-58
2020/12/01 07:20:18;;;;;;;2.00;1.25;;;22.50;49.20;;;;;;5084898;28;20076;-54
2020/12/01 07:23:04;;;;;;;1.90;1.08;;;22.50;49.60;;;;;;5070439;28;20105;-55
2020/12/01 07:25:54;;;;;;;3.75;1.50;;;22.50;49.80;;;;;;5072729;28;20485;-55
2020/12/01 07:28:42;;;;;;;2.20;1.30;;;22.60;50.20;;;;;;5089352;28;20391;-56
2020/12/01 07:31:20;;;;;;;1.50;1.10;;;22.70;50.10;;;;;;5096453;28;20406;-51
2020/12/01 07:33:55;;;;;;;1.95;1.23;;;22.70;50.30;;;;;;5085508;28;20033;-55
2020/12/01 07:36:42;;;;;;;1.60;1.13;;;22.70;50.80;;;;;;5082582;28;20653;-57
2020/12/01 07:39:34;;;;;;;1.52;1.00;;;22.70;51.00;;;;;;5080365;28;20068;-58
2020/12/01 07:42:03;;;;;;;1.80;1.10;;;22.70;51.30;;;;;;5080134;28;20044;-55
2020/12/01 07:44:38;;;;;;;2.63;1.27;;;22.70;51.30;;;;;;5086778;28;20055;-55
2020/12/01 07:47:13;;;;;;;1.80;1.20;;;22.80;51.70;;;;;;5076717;28;20378;-52
2020/12/01 07:49:39;;;;;;;1.63;1.10;;;22.90;51.50;;;;;;5093759;28;20035;-62
2020/12/01 07:52:14;;;;;;;1.73;1.00;;;22.90;52.00;;;;;;5087120;28;20020;-57
2020/12/01 07:54:42;;;;;;;1.60;1.08;;;23.00;52.00;;;;;;5088222;28;20036;-61
2020/12/01 07:57:16;;;;;;;1.70;1.00;;;22.90;51.70;;;;;;5101851;28;20036;-53
2020/12/01 07:59:44;;;;;;;1.55;1.10;;;22.90;52.00;;;;;;5104930;28;20381;-57
2020/12/01 08:02:09;;;;;;;1.35;1.00;;;22.90;52.40;;;;;;5079257;28;20132;-54
2020/12/01 08:04:35;;;;;;;2.35;1.20;;;22.90;51.90;;;;;;5094316;28;20040;-55
2020/12/01 08:07:02;;;;;;;2.42;1.20;;;23.00;52.30;;;;;;5086288;28;20016;-55
2020/12/01 08:09:29;;;;;;;2.28;1.55;;;23.00;52.20;;;;;;5088441;28;20143;-54
2020/12/01 08:12:01;;;;;;;2.28;1.20;;;23.00;49.60;;;;;;5076485;28;20032;-53
2020/12/01 08:14:26;;;;;;;2.50;1.40;;;23.00;49.30;;;;;;5088225;28;20034;-56
2020/12/01 08:17:06;;;;;;;2.08;1.20;;;23.00;49.50;;;;;;5075258;28;20032;-55
2020/12/01 08:19:32;;;;;;;;;;;23.00;50.20;;;;;;5086871;28;20127;-59
2020/12/01 08:22:00;;;;;;;2.10;1.30;;;23.00;50.60;;;;;;5083941;28;19912;-54
2020/12/01 08:24:30;;;;;;;1.80;1.13;;;23.00;50.90;;;;;;5087815;28;20139;-54
2020/12/01 08:27:23;;;;;;;3.63;1.60;;;23.10;51.30;;;;;;5089350;28;20118;-55
2020/12/01 08:29:50;;;;;;;2.55;1.63;;;23.10;49.80;;;;;;5101397;28;20124;-53
2020/12/01 08:32:36;;;;;;;2.33;1.35;;;23.10;48.10;;;;;;5099983;28;20024;-52
2020/12/01 08:35:17;;;;;;;2.58;1.60;;;23.00;48.00;;;;;;5087552;28;20020;-55
2020/12/01 08:38:03;;;;;;;3.03;1.50;;;23.00;48.20;;;;;;5088198;28;20035;-52
2020/12/01 08:41:04;;;;;;;3.72;1.60;;;22.90;47.40;;;;;;5101661;28;20036;-54
2020/12/01 08:43:55;;;;;;;2.92;1.63;;;22.80;47.40;;;;;;5082425;28;20554;-51
2020/12/01 08:46:24;;;;;;;2.40;1.50;;;22.80;47.60;;;;;;5069535;28;20483;-53
2020/12/01 08:49:06;;;;;;;2.60;1.50;;;22.80;47.50;;;;;;5098128;28;20035;-55
2020/12/01 08:51:36;;;;;;;2.30;1.40;;;22.70;47.90;;;;;;5084996;28;20400;-53
2020/12/01 08:54:20;;;;;;;2.63;1.40;;;22.70;47.70;;;;;;5086419;28;20101;-59
2020/12/01 08:56:48;;;;;;;2.30;1.38;;;22.70;48.00;;;;;;5090778;28;20032;-54
2020/12/01 08:59:47;;;;;;;2.60;1.50;;;22.70;48.10;;;;;;5088933;28;20459;-55
2020/12/01 09:02:15;;;;;;;3.03;1.42;;;22.60;48.10;;;;;;5083660;28;20044;-54
2020/12/01 09:04:40;;;;;;;2.50;1.60;;;22.60;48.00;;;;;;5073920;28;20375;-60
2020/12/01 09:07:26;;;;;;;2.08;1.30;;;22.60;48.00;;;;;;5097824;28;20020;-54
2020/12/01 09:10:07;;;;;;;2.13;1.40;;;22.60;48.00;;;;;;5094022;28;20127;-61
2020/12/01 09:12:56;;;;;;;3.05;1.50;;;22.60;48.00;;;;;;5085109;28;20051;-54
2020/12/01 09:19:09;;;;;;;2.03;0.95;;;22.50;48.50;;;;;;5074251;28;20116;-57
2020/12/01 09:24:23;;;;;;;1.55;0.95;;;22.50;48.90;;;;;;5071097;28;20046;-57
2020/12/01 09:27:00;;;;;;;1.40;1.00;;;22.50;48.90;;;;;;5082227;28;20441;-51
2020/12/01 09:29:26;;;;;;;1.95;1.35;;;22.50;49.00;;;;;;5079715;28;20032;-54
2020/12/01 09:31:51;;;;;;;1.25;0.90;;;22.50;49.00;;;;;;5082865;28;20069;-59
2020/12/01 09:34:17;;;;;;;1.35;0.90;;;22.60;49.60;;;;;;5077878;28;20762;-53
2020/12/01 09:36:43;;;;;;;1.48;1.00;;;22.50;49.60;;;;;;5067960;28;20070;-55
2020/12/01 09:39:08;;;;;;;1.65;1.08;;;22.60;49.80;;;;;;5076046;28;20040;-60
2020/12/01 09:41:34;;;;;;;1.70;1.00;;;22.60;49.40;;;;;;5075313;28;20024;-58
2020/12/01 09:44:22;;;;;;;1.33;1.00;;;22.60;49.50;;;;;;5070823;28;20123;-55
2020/12/01 09:46:55;;;;;;;1.65;1.10;;;22.60;50.10;;;;;;5083864;28;20373;-56
2020/12/01 09:49:20;;;;;;;2.42;1.10;;;22.70;50.50;;;;;;5077694;28;20033;-60
2020/12/01 09:51:56;;;;;;;1.65;1.08;;;22.70;50.30;;;;;;5073975;28;21451;-48
2020/12/01 09:54:49;;;;;;;1.95;1.10;;;22.70;50.80;;;;;;5080037;28;20047;-53
2020/12/01 09:57:23;;;;;;;1.52;1.00;;;22.70;51.10;;;;;;5076319;28;20032;-51
2020/12/01 10:00:05;;;;;;;1.92;0.90;;;22.70;51.80;;;;;;5073382;28;20119;-56
2020/12/01 10:08:15;;;;;;;1.60;1.00;;;22.80;51.80;;;;;;5078533;28;20384;-52
2020/12/01 10:13:45;;;;;;;1.30;0.90;;;22.80;51.60;;;;;;5083543;28;20375;-53
2020/12/01 10:34:41;;;;;;;1.45;1.00;;;22.90;51.90;;;;;;5078506;28;20335;-54
2020/12/01 10:37:07;;;;;;;1.85;0.80;;;23.00;52.40;;;;;;5081313;28;20124;-56
2020/12/01 10:39:33;;;;;;;1.23;0.90;;;23.00;52.70;;;;;;5087964;28;20445;-49
2020/12/01 10:41:58;;;;;;;1.63;1.00;;;23.00;52.90;;;;;;5092179;28;20067;-57
2020/12/01 10:44:24;;;;;;;1.25;0.80;;;23.10;53.30;;;;;;5079563;28;20549;-56
2020/12/01 10:46:50;;;;;;;2.35;1.30;;;23.10;52.90;;;;;;5081613;28;20024;-55
2020/12/01 10:49:16;;;;;;;2.58;1.45;;;23.10;49.40;;;;;;5085023;28;20055;-57
2020/12/01 10:51:46;;;;;;;2.38;1.50;;;23.10;48.40;;;;;;5075644;28;20112;-51
2020/12/01 10:54:11;;;;;;;2.70;1.65;;;23.00;48.00;;;;;;5074979;28;20077;-55
2020/12/01 10:56:37;;;;;;;2.20;1.17;;;22.90;47.90;;;;;;5073460;28;20486;-54
2020/12/01 10:59:02;;;;;;;2.10;1.30;;;22.90;48.40;;;;;;5072839;28;20134;-53
2020/12/01 11:01:33;;;;;;;2.33;1.50;;;22.80;48.40;;;;;;5073853;28;20211;-50
2020/12/01 11:03:59;;;;;;;2.80;1.30;;;22.80;48.40;;;;;;5081564;28;20466;-56
2020/12/01 11:06:25;;;;;;;1.98;1.30;;;22.80;48.80;;;;;;5078690;28;20036;-54
2020/12/01 11:08:51;;;;;;;2.42;1.30;;;22.80;48.30;;;;;;5085703;28;20047;-54
2020/12/01 11:11:19;;;;;;;1.77;1.30;;;22.80;48.30;;;;;;5090742;28;20035;-57
2020/12/01 11:13:45;;;;;;;2.45;1.30;;;22.80;48.20;;;;;;5087990;28;20048;-52
2020/12/01 11:16:11;;;;;;;3.38;1.55;;;22.80;48.20;;;;;;5089609;28;20354;-57
2020/12/01 11:18:37;;;;;;;2.50;1.38;;;22.80;48.20;;;;;;5086637;28;21518;-52
2020/12/01 11:21:03;;;;;;;2.40;1.27;;;22.80;48.30;;;;;;5089994;28;20028;-50
2020/12/01 11:23:29;;;;;;;2.90;1.67;;;22.80;48.20;;;;;;5087475;28;20040;-56
2020/12/01 11:25:55;;;;;;;3.25;1.88;;;22.80;48.20;;;;;;5086302;28;20024;-54
2020/12/01 11:28:20;;;;;;;2.58;1.30;;;22.80;48.40;;;;;;5085867;28;20377;-51
2020/12/01 11:30:46;;;;;;;1.85;1.20;;;22.80;48.50;;;;;;5083643;28;20043;-55
2020/12/01 11:33:12;;;;;;;1.52;1.20;;;22.70;48.40;;;;;;5088966;28;20047;-50
2020/12/01 11:35:37;;;;;;;2.50;1.30;;;22.70;48.40;;;;;;5082757;28;20108;-54
2020/12/01 11:38:03;;;;;;;2.95;1.40;;;22.80;48.40;;;;;;5088914;27;20161;-50
2020/12/01 11:40:29;;;;;;;2.53;1.40;;;22.70;48.30;;;;;;5090207;28;20032;-49
2020/12/01 11:42:54;;;;;;;2.45;1.23;;;22.70;48.30;;;;;;5084724;28;20035;-50
2020/12/01 11:45:20;;;;;;;2.03;1.10;;;22.70;48.40;;;;;;5085890;28;20055;-53
2020/12/01 11:47:46;;;;;;;1.92;1.40;;;22.70;48.40;;;;;;5083906;28;20036;-52
2020/12/01 11:50:12;;;;;;;2.75;1.30;;;22.70;48.40;;;;;;5079812;28;20020;-56
2020/12/01 11:52:38;;;;;;;3.28;1.50;;;22.70;48.30;;;;;;5088696;28;20032;-58
2020/12/01 11:55:06;;;;;;;3.47;1.40;;;22.70;48.30;;;;;;5081676;28;20085;-50
2020/12/01 11:57:32;;;;;;;2.38;1.40;;;22.70;48.30;;;;;;5071477;28;20807;-55
2020/12/01 11:59:57;;;;;;;3.00;1.58;;;22.70;48.40;;;;;;5069666;28;20046;-53
2020/12/01 12:02:23;;;;;;;2.08;1.40;;;22.60;48.30;;;;;;5084890;28;20490;-52
2020/12/01 12:04:48;;;;;;;2.30;1.50;;;22.60;48.30;;;;;;5079325;28;20129;-52
2020/12/01 12:07:14;;;;;;;2.33;1.30;;;22.60;48.30;;;;;;5078479;28;20024;-54
2020/12/01 12:09:40;;;;;;;3.22;1.30;;;22.60;48.40;;;;;;5089372;28;20027;-57
2020/12/01 12:12:05;;;;;;;2.45;1.17;;;22.60;48.60;;;;;;5090009;28;20497;-57
2020/12/01 12:14:31;;;;;;;1.50;0.95;;;22.50;48.70;;;;;;5087487;28;20105;-57
2020/12/01 12:16:57;;;;;;;1.88;1.00;;;22.50;49.00;;;;;;5077165;28;20488;-56
2020/12/01 12:19:22;;;;;;;1.48;0.95;;;22.50;49.00;;;;;;5089398;28;20035;-57
2020/12/01 12:21:48;;;;;;;1.25;0.85;;;22.60;49.30;;;;;;5079607;28;20118;-56
2020/12/01 12:24:14;;;;;;;2.03;1.10;;;22.60;49.90;;;;;;5089125;28;20032;-55
2020/12/01 12:26:39;;;;;;;1.67;1.10;;;22.60;49.70;;;;;;5086814;28;20036;-53
2020/12/01 12:29:05;;;;;;;1.25;0.93;;;22.60;50.30;;;;;;5088529;28;20024;-53
2020/12/01 12:31:30;;;;;;;1.48;0.90;;;22.70;50.20;;;;;;5079671;28;20548;-52
2020/12/01 12:33:56;;;;;;;1.23;0.82;;;22.70;50.00;;;;;;5073195;28;20028;-59
2020/12/01 12:36:23;;;;;;;1.58;0.93;;;22.70;50.20;;;;;;5090049;28;20055;-59
2020/12/01 12:38:48;;;;;;;2.00;0.90;;;22.70;50.20;;;;;;5085155;28;20542;-49
2020/12/01 12:41:14;;;;;;;1.63;0.93;;;22.80;50.60;;;;;;5100810;28;20107;-55
2020/12/01 12:43:41;;;;;;;1.38;0.95;;;22.80;50.20;;;;;;5093663;28;20039;-53
2020/12/01 12:46:06;;;;;;;1.50;1.08;;;22.80;50.30;;;;;;5086868;28;20589;-53
2020/12/01 12:48:32;;;;;;;2.30;1.50;;;22.80;50.50;;;;;;5077902;28;20034;-53
2020/12/01 12:50:58;;;;;;;2.35;1.42;;;22.80;49.70;;;;;;5078179;28;20054;-51
2020/12/01 12:53:24;;;;;;;2.60;1.60;;;22.80;49.10;;;;;;5080002;28;20033;-48
2020/12/01 12:55:50;;;;;;;3.33;1.73;;;22.80;48.90;;;;;;5069547;28;20040;-48
2020/12/01 12:58:16;;;;;;;2.15;1.40;;;22.80;48.80;;;;;;5078179;28;20042;-51
2020/12/01 13:00:42;;;;;;;2.22;1.10;;;22.80;48.80;;;;;;5075496;28;20036;-53
2020/12/01 13:03:07;;;;;;;1.52;1.02;;;22.70;48.90;;;;;;5073955;28;20043;-53
2020/12/01 13:05:33;;;;;;;2.30;1.17;;;22.70;49.10;;;;;;5078059;28;20082;-50
2020/12/01 13:07:59;;;;;;;1.92;1.00;;;22.70;49.40;;;;;;5065360;28;20051;-54
2020/12/01 13:10:25;;;;;;;1.85;1.13;;;22.70;49.50;;;;;;5068261;28;20111;-55
2020/12/01 13:12:51;;;;;;;2.55;1.10;;;22.80;50.30;;;;;;5082266;28;20443;-56
2020/12/01 13:15:18;;;;;;;2.08;1.15;;;22.80;50.40;;;;;;5070233;28;20119;-52
2020/12/01 13:17:44;;;;;;;1.88;1.08;;;22.80;50.50;;;;;;5067120;28;20059;-54
2020/12/01 13:20:17;;;;;;;1.65;0.93;;;22.80;50.70;;;;;;5077261;28;20044;-55
2020/12/01 13:22:42;;;;;;;2.28;1.00;;;22.90;51.10;;;;;;5082227;28;20382;-57
2020/12/01 13:25:08;;;;;;;1.10;0.80;;;22.90;51.70;;;;;;5067961;28;20029;-51
2020/12/01 13:27:34;;;;;;;1.80;1.10;;;22.90;51.20;;;;;;5074191;28;20039;-55
2020/12/01 13:29:59;;;;;;;1.60;0.90;;;23.00;51.20;;;;;;5073134;28;20126;-52
2020/12/01 13:32:25;;;;;;;1.27;0.88;;;23.00;50.90;;;;;;5077520;28;20738;-51
2020/12/01 13:34:51;;;;;;;1.45;0.90;;;23.00;51.10;;;;;;5082072;28;20085;-52
2020/12/01 13:37:18;;;;;;;1.50;0.95;;;23.00;51.30;;;;;;5082421;28;20431;-57
2020/12/01 13:39:44;;;;;;;1.48;1.00;;;23.00;51.10;;;;;;5073594;28;20455;-55
2020/12/01 13:42:09;;;;;;;1.23;0.90;;;23.00;51.40;;;;;;5069268;28;20078;-50